Time;durP1;ratioP1;P1;durP2;ratioP2;P2;SDS_P1;SDS_P2;PMS_P1;PMS_P2;Temp;Humidity;BMP_temperature;BMP_pressure;BME280_temperature;BME280_humidity;BME280_pressure;Samples;Min_cycle;Max_cycle;Signal;HPM_P1;HPM_P2
2023/10/03 00:00:27;;;;;;;4.90;1.77;;;;;;;18.96;43.73;100622.16;6272589;22;20008;-87
2023/10/03 00:03:03;;;;;;;4.35;1.55;;;;;;;19.02;43.76;100632.66;6273155;22;20125;-87
2023/10/03 00:05:51;;;;;;;7.88;2.15;;;;;;;18.86;43.47;100596.69;6273649;22;20378;-87
2023/10/03 00:08:18;;;;;;;6.32;2.03;;;;;;;18.72;43.40;100590.00;6273462;22;20008;-87
2023/10/03 00:10:45;;;;;;;7.50;2.05;;;;;;;18.92;43.78;100612.50;6246499;22;20073;-88
2023/10/03 00:13:12;;;;;;;6.07;1.92;;;;;;;18.83;43.39;100599.44;6273561;22;20043;-87
2023/10/03 00:15:47;;;;;;;8.90;2.72;;;;;;;18.79;43.58;100604.00;6273611;22;20000;-87
2023/10/03 00:18:13;;;;;;;;;;;;;;;19.23;44.11;100679.16;6273539;22;20000;-87
2023/10/03 00:20:48;;;;;;;9.80;2.97;;;;;;;18.46;45.09;100603.34;6273602;22;19915;-87
2023/10/03 00:23:26;;;;;;;7.07;2.75;;;;;;;18.49;45.27;100624.63;6273134;22;20069;-88
2023/10/03 00:29:02;;;;;;;6.55;2.78;;;;;;;19.09;45.24;100692.13;6179205;23;20428;-89
2023/10/03 00:32:40;;;;;;;8.57;2.42;;;;;;;18.63;44.98;100605.47;6179582;23;20011;-90
2023/10/03 00:35:41;;;;;;;4.72;1.65;;;;;;;18.14;45.89;100592.81;6178782;23;20052;-89
2023/10/03 00:38:22;;;;;;;5.75;2.17;;;;;;;18.40;46.24;100623.16;6182349;23;20009;-90
2023/10/03 00:40:55;;;;;;;9.63;2.05;;;;;;;18.13;46.30;100584.84;6186863;23;20008;-90
2023/10/03 00:43:24;;;;;;;5.72;2.45;;;;;;;18.21;46.25;100614.84;6209407;23;20567;-90
2023/10/03 00:45:49;;;;;;;6.50;1.95;;;;;;;18.24;46.70;100646.78;6209299;23;20009;-91
2023/10/03 00:48:20;;;;;;;4.43;2.35;;;;;;;17.97;47.21;100614.69;6223721;22;20043;-89
2023/10/03 00:50:49;;;;;;;7.28;2.60;;;;;;;17.77;48.25;100633.94;6239792;23;20012;-91
2023/10/03 00:53:57;;;;;;;6.70;2.35;;;;;;;17.70;47.96;100592.34;6239573;23;20036;-90
2023/10/03 00:56:36;;;;;;;6.50;3.17;;;;;;;17.79;47.93;100623.22;6187134;23;20009;-90
2023/10/03 00:59:48;;;;;;;;;;;;;;;;;;;;;
2023/10/03 01:02:14;;;;;;;5.60;2.20;;;;;;;17.88;47.90;100629.19;6244831;23;20439;-89
2023/10/03 01:04:53;;;;;;;5.32;2.67;;;;;;;17.83;47.58;100624.91;6243293;22;20027;-90
2023/10/03 01:07:23;;;;;;;3.35;1.80;;;;;;;17.88;47.73;100628.28;6304661;22;20007;-90
2023/10/03 01:09:53;;;;;;;10.07;3.53;;;;;;;17.75;47.86;100616.22;6278067;22;20346;-89
2023/10/03 01:12:18;;;;;;;5.75;3.08;;;;;;;17.79;47.94;100620.56;6304349;22;20031;-89
2023/10/03 01:14:46;;;;;;;10.13;2.97;;;;;;;17.71;47.88;100620.78;6306515;22;20042;-88
2023/10/03 01:17:14;;;;;;;5.25;2.25;;;;;;;17.79;48.28;100641.91;6305176;22;20422;-88
2023/10/03 01:19:41;;;;;;;10.13;3.13;;;;;;;17.65;48.24;100613.84;6304657;22;19999;-89
2023/10/03 01:22:15;;;;;;;4.70;2.78;;;;;;;17.91;48.91;100672.75;6305243;22;20137;-90
2023/10/03 01:24:52;;;;;;;15.75;2.50;;;;;;;17.57;48.39;100594.53;6305020;22;20000;-89
2023/10/03 01:27:30;;;;;;;5.40;2.78;;;;;;;17.91;48.54;100628.22;6277469;22;20026;-89
2023/10/03 01:29:58;;;;;;;7.78;2.67;;;;;;;17.81;48.56;100634.72;6277641;22;20093;-90
2023/10/03 01:32:35;;;;;;;10.48;2.65;;;;;;;17.61;48.80;100614.88;6305082;22;20007;-89
2023/10/03 01:35:08;;;;;;;8.35;3.08;;;;;;;17.61;49.18;100630.88;6277063;22;20014;-89
2023/10/03 01:37:39;;;;;;;5.13;2.53;;;;;;;17.33;50.18;100634.31;6303444;22;20401;-89
2023/10/03 01:40:16;;;;;;;5.95;2.67;;;;;;;17.27;49.74;100625.59;6305313;22;20003;-89
2023/10/03 01:42:46;;;;;;;10.15;3.60;;;;;;;17.09;50.21;100643.00;6305046;22;20006;-88
2023/10/03 01:45:24;;;;;;;9.15;4.03;;;;;;;16.98;50.83;100645.94;6333387;22;19995;-89
2023/10/03 01:48:02;;;;;;;6.20;2.58;;;;;;;16.82;50.65;100614.34;6306074;22;20003;-88
2023/10/03 01:50:36;;;;;;;6.25;3.35;;;;;;;16.71;50.57;100583.56;6331707;22;20450;-88
2023/10/03 01:53:07;;;;;;;7.55;2.92;;;;;;;16.70;50.91;100627.97;6332879;22;19995;-88
2023/10/03 01:55:37;;;;;;;8.35;2.17;;;;;;;16.82;51.08;100642.75;6332209;22;20165;-88
2023/10/03 01:58:07;;;;;;;6.20;2.50;;;;;;;16.87;51.02;100611.59;6358624;22;20015;-88
2023/10/03 02:00:35;;;;;;;5.78;2.40;;;;;;;16.60;51.02;100610.47;6333392;22;20007;-86
2023/10/03 02:03:08;;;;;;;5.70;2.25;;;;;;;16.73;51.49;100662.53;6332628;22;20007;-89
2023/10/03 02:05:36;;;;;;;6.65;3.47;;;;;;;16.29;51.41;100588.13;6333252;22;20049;-87
2023/10/03 02:08:10;;;;;;;6.80;2.47;;;;;;;16.36;51.41;100572.91;6331948;22;20011;-89
2023/10/03 02:10:48;;;;;;;8.93;2.60;;;;;;;16.25;51.75;100578.50;6306167;22;20398;-89
2023/10/03 02:13:32;;;;;;;9.88;2.70;;;;;;;16.39;52.19;100643.81;6301173;22;20014;-88
2023/10/03 02:16:03;;;;;;;5.78;2.20;;;;;;;16.68;52.00;100698.19;6271905;22;20008;-88
2023/10/03 02:18:29;;;;;;;7.35;2.88;;;;;;;16.09;52.29;100593.94;6300911;22;20014;-89
2023/10/03 02:21:01;;;;;;;10.57;2.35;;;;;;;16.43;51.88;100633.06;6328176;22;20007;-89
2023/10/03 02:23:32;;;;;;;6.53;3.00;;;;;;;16.13;51.78;100599.19;6301501;22;20011;-88
2023/10/03 02:26:25;;;;;;;8.27;2.42;;;;;;;16.03;52.44;100612.69;6327987;22;20098;-89
2023/10/03 02:28:59;;;;;;;6.10;2.25;;;;;;;15.97;52.39;100602.19;6302575;22;20033;-88
2023/10/03 02:31:58;;;;;;;6.80;3.00;;;;;;;16.01;52.83;100608.34;6303641;22;20086;-88
2023/10/03 02:34:43;;;;;;;6.28;2.45;;;;;;;15.85;53.41;100606.03;6180314;23;20009;-88
2023/10/03 02:37:52;;;;;;;5.82;2.80;;;;;;;16.04;53.45;100635.75;6180562;23;20008;-88
2023/10/03 02:40:32;;;;;;;7.70;2.78;;;;;;;16.35;53.83;100692.75;6179769;23;20012;-88
2023/10/03 02:42:59;;;;;;;6.15;3.03;;;;;;;16.02;54.06;100636.69;6155799;23;20005;-88
2023/10/03 02:45:28;;;;;;;6.88;2.35;;;;;;;15.81;54.53;100611.47;6155411;23;20367;-88
2023/10/03 02:47:58;;;;;;;8.23;3.05;;;;;;;16.10;54.43;100650.72;6180403;23;20035;-89
2023/10/03 02:50:23;;;;;;;6.82;2.58;;;;;;;16.18;54.55;100675.38;6154924;23;20021;-86
2023/10/03 02:52:59;;;;;;;7.20;3.83;;;;;;;15.78;55.17;100606.19;6180428;23;20092;-89
2023/10/03 02:55:33;;;;;;;;;;;;;;;16.07;55.54;100707.53;6180480;23;20044;-89
2023/10/03 02:57:59;;;;;;;6.82;2.15;;;;;;;15.49;55.41;100624.50;6180353;23;19966;-87
2023/10/03 03:00:24;;;;;;;;;;;;;;;16.13;55.58;100706.53;6181264;23;20013;-94
2023/10/03 03:02:52;;;;;;;13.73;2.40;;;;;;;15.79;55.49;100670.00;6155652;23;19936;-93
2023/10/03 03:05:35;;;;;;;7.63;2.67;;;;;;;15.76;55.36;100665.59;6157223;23;20083;-92
2023/10/03 03:10:55;;;;;;;11.68;3.15;;;;;;;15.65;55.81;100645.47;6249274;22;20389;-91
2023/10/03 03:13:27;;;;;;;10.32;3.40;;;;;;;15.55;55.64;100632.34;6278025;22;20034;-90
2023/10/03 03:16:00;;;;;;;10.32;3.15;;;;;;;15.45;55.63;100620.16;6304403;22;20011;-86
2023/10/03 03:18:32;;;;;;;5.50;2.88;;;;;;;15.86;55.68;100708.00;6304665;22;20074;-85
2023/10/03 03:21:07;;;;;;;6.75;2.83;;;;;;;15.56;55.49;100642.06;6305376;22;20327;-86
2023/10/03 03:23:36;;;;;;;5.80;2.65;;;;;;;15.71;55.62;100683.44;6304892;22;20402;-85
2023/10/03 03:28:43;;;;;;;6.22;2.38;;;;;;;15.27;55.12;100602.78;6305110;22;20056;-87
2023/10/03 03:31:17;;;;;;;4.50;2.83;;;;;;;15.19;55.61;100613.56;6304644;22;20410;-86
2023/10/03 03:33:47;;;;;;;8.43;2.47;;;;;;;15.70;55.58;100686.13;6304645;22;20014;-87
2023/10/03 03:36:17;;;;;;;12.25;3.17;;;;;;;15.86;55.62;100719.50;6304793;22;20090;-86
2023/10/03 03:38:48;;;;;;;13.40;3.35;;;;;;;15.66;55.46;100697.72;6305030;22;20003;-86
2023/10/03 03:41:15;;;;;;;7.78;2.88;;;;;;;15.12;55.94;100617.25;6305065;22;20003;-84
2023/10/03 03:43:43;;;;;;;6.70;2.53;;;;;;;15.14;56.04;100652.63;6304186;22;20080;-89
2023/10/03 03:46:10;;;;;;;4.57;2.60;;;;;;;15.24;56.32;100640.03;6304837;22;20056;-87
2023/10/03 03:48:41;;;;;;;11.82;3.13;;;;;;;15.08;56.13;100641.25;6304065;22;20064;-88
2023/10/03 03:51:11;;;;;;;13.75;3.28;;;;;;;14.87;56.42;100592.91;6304976;22;20000;-86
2023/10/03 03:53:38;;;;;;;6.90;3.13;;;;;;;15.16;56.56;100649.97;6304488;22;20088;-88
2023/10/03 03:56:07;;;;;;;9.18;2.88;;;;;;;14.89;56.80;100603.50;6304414;22;20445;-88
2023/10/03 03:58:45;;;;;;;5.35;2.45;;;;;;;15.01;56.84;100643.13;6277308;22;20327;-88
2023/10/03 04:01:19;;;;;;;6.20;2.95;;;;;;;15.09;56.43;100645.66;6304362;22;20529;-87
2023/10/03 04:03:49;;;;;;;14.90;3.65;;;;;;;15.01;56.68;100627.19;6304614;22;20438;-87
2023/10/03 04:06:15;;;;;;;13.00;4.32;;;;;;;14.79;56.98;100595.72;6304862;22;20376;-88
2023/10/03 04:08:41;;;;;;;6.68;3.28;;;;;;;14.77;56.98;100616.13;6304817;22;20010;-87
2023/10/03 04:11:07;;;;;;;7.20;3.38;;;;;;;14.88;57.24;100612.41;6305041;22;20003;-88
2023/10/03 04:13:39;;;;;;;10.30;3.22;;;;;;;15.01;56.89;100648.44;6304168;22;20008;-84
2023/10/03 04:16:06;;;;;;;6.00;3.15;;;;;;;14.86;56.72;100601.81;6304383;22;20003;-88
2023/10/03 04:18:33;;;;;;;10.73;2.88;;;;;;;14.90;56.52;100614.09;6302173;22;20319;-88
2023/10/03 04:20:59;;;;;;;6.18;3.45;;;;;;;14.93;56.74;100602.56;6304394;22;20333;-87
2023/10/03 04:23:26;;;;;;;9.25;3.42;;;;;;;15.08;57.36;100631.50;6303657;22;20040;-87
2023/10/03 04:25:52;;;;;;;7.97;3.53;;;;;;;15.15;56.98;100645.53;6304449;22;20003;-85
2023/10/03 04:28:18;;;;;;;11.13;3.55;;;;;;;15.25;56.80;100657.75;6304237;22;20434;-87
2023/10/03 04:30:43;;;;;;;14.57;3.85;;;;;;;15.14;57.00;100657.97;6304051;22;20010;-86
2023/10/03 04:33:09;;;;;;;;;;;;;;;15.53;56.51;100707.75;6304702;22;20011;-87
2023/10/03 04:35:35;;;;;;;13.38;3.20;;;;;;;14.96;57.34;100676.88;6303958;22;19906;-86
2023/10/03 04:38:04;;;;;;;8.27;3.90;;;;;;;14.93;57.01;100647.72;6303996;22;20399;-86
2023/10/03 04:40:35;;;;;;;10.05;3.85;;;;;;;14.91;57.43;100652.19;6303518;22;20081;-85
2023/10/03 04:43:20;;;;;;;20.30;4.25;;;;;;;15.01;58.13;100661.72;6304068;22;20085;-86
2023/10/03 04:45:45;;;;;;;;;;;;;;;15.32;57.88;100722.31;6304367;22;20014;-86
2023/10/03 04:48:12;;;;;;;9.88;3.08;;;;;;;15.08;58.02;100683.78;6303758;22;19911;-85
2023/10/03 04:50:39;;;;;;;7.53;4.82;;;;;;;14.98;58.25;100667.09;6303731;22;19999;-85
2023/10/03 04:53:07;;;;;;;13.35;3.65;;;;;;;14.92;57.77;100664.56;6302837;22;20003;-85
2023/10/03 04:55:33;;;;;;;20.35;4.57;;;;;;;14.98;57.04;100683.94;6302737;22;20003;-85
2023/10/03 04:57:59;;;;;;;8.93;4.53;;;;;;;14.82;56.32;100662.06;6303629;22;20054;-86
2023/10/03 05:00:25;;;;;;;25.05;5.13;;;;;;;14.46;57.34;100659.06;6276301;22;20086;-86
2023/10/03 05:02:53;;;;;;;10.15;4.03;;;;;;;14.26;57.59;100629.31;6303533;22;20003;-86
2023/10/03 05:05:23;;;;;;;10.23;3.88;;;;;;;14.63;57.69;100660.63;6301390;22;20338;-86
2023/10/03 05:07:54;;;;;;;12.07;3.40;;;;;;;14.98;57.90;100728.19;6303106;22;20034;-86
2023/10/03 05:10:20;;;;;;;16.67;3.58;;;;;;;14.82;58.01;100664.72;6302557;22;20007;-86
2023/10/03 05:12:48;;;;;;;10.32;4.75;;;;;;;15.04;57.88;100677.63;6275788;22;20011;-86
2023/10/03 05:15:16;;;;;;;8.75;5.55;;;;;;;14.89;58.11;100661.94;6303185;22;20012;-85
2023/10/03 05:17:46;;;;;;;17.25;4.75;;;;;;;15.24;58.05;100695.84;6303632;22;20003;-87
2023/10/03 05:20:13;;;;;;;19.40;5.47;;;;;;;15.20;57.94;100656.97;6303372;22;20004;-86
2023/10/03 05:22:40;;;;;;;16.30;3.70;;;;;;;15.42;58.37;100676.03;6303303;22;20015;-87
2023/10/03 05:25:13;;;;;;;13.60;4.22;;;;;;;15.62;58.89;100650.84;6303703;22;20014;-86
2023/10/03 05:27:48;;;;;;;7.28;4.85;;;;;;;15.92;57.41;100686.59;6303548;22;19999;-87
2023/10/03 05:30:14;;;;;;;10.23;4.57;;;;;;;15.93;56.97;100707.84;6304000;22;20038;-87
2023/10/03 05:32:42;;;;;;;7.45;4.18;;;;;;;16.12;57.04;100694.13;6303596;22;20056;-87
2023/10/03 05:35:08;;;;;;;9.70;4.07;;;;;;;15.92;56.43;100707.88;6302992;22;20014;-86
2023/10/03 05:37:35;;;;;;;6.90;4.25;;;;;;;16.18;56.71;100717.97;6274379;22;20343;-87
2023/10/03 05:40:11;;;;;;;14.68;4.13;;;;;;;15.94;56.43;100690.06;6303136;22;20010;-89
2023/10/03 05:42:40;;;;;;;14.75;3.78;;;;;;;16.14;56.15;100724.25;6302686;22;20433;-89
2023/10/03 05:45:07;;;;;;;20.20;4.95;;;;;;;16.31;56.06;100725.66;6302153;22;20007;-87
2023/10/03 05:47:32;;;;;;;22.02;5.45;;;;;;;16.35;55.61;100674.97;6303026;22;20004;-86
2023/10/03 05:49:58;;;;;;;18.60;5.65;;;;;;;16.57;54.06;100704.63;6303237;22;20016;-90
2023/10/03 05:52:23;;;;;;;16.27;7.40;;;;;;;16.63;53.22;100733.78;6302787;22;20003;-88
2023/10/03 05:54:48;;;;;;;9.90;5.55;;;;;;;16.81;53.66;100760.94;6303145;22;20330;-86
2023/10/03 05:57:14;;;;;;;15.90;6.63;;;;;;;17.04;53.20;100778.16;6302592;22;20027;-86
2023/10/03 05:59:39;;;;;;;14.68;6.20;;;;;;;16.82;52.98;100752.00;6302471;22;20074;-86
2023/10/03 06:02:05;;;;;;;11.20;4.75;;;;;;;16.89;53.13;100747.44;6301902;22;20053;-86
2023/10/03 06:04:36;;;;;;;14.35;5.38;;;;;;;17.09;52.40;100720.31;6301675;22;20018;-86
2023/10/03 06:07:04;;;;;;;7.72;4.45;;;;;;;17.61;51.76;100752.69;6277385;22;20354;-84
2023/10/03 06:09:29;;;;;;;7.53;3.80;;;;;;;17.52;51.38;100785.84;6304702;22;20003;-86
2023/10/03 06:11:55;;;;;;;8.32;4.75;;;;;;;17.62;51.34;100778.47;6305251;22;20004;-86
2023/10/03 06:14:21;;;;;;;8.80;5.18;;;;;;;17.50;51.50;100763.66;6304887;22;20010;-88
2023/10/03 06:16:46;;;;;;;10.00;4.05;;;;;;;17.77;51.30;100763.84;6304601;22;20010;-87
2023/10/03 06:19:11;;;;;;;8.98;3.58;;;;;;;17.98;50.98;100771.28;6304110;22;20125;-86
2023/10/03 06:21:37;;;;;;;6.13;3.63;;;;;;;17.95;50.71;100743.78;6304186;22;20078;-86
2023/10/03 06:24:03;;;;;;;10.25;4.32;;;;;;;18.40;49.90;100752.22;6304270;22;20060;-86
2023/10/03 06:26:29;;;;;;;11.50;4.82;;;;;;;18.50;49.79;100798.22;6305093;22;20034;-85
2023/10/03 06:28:54;;;;;;;8.43;4.25;;;;;;;18.75;49.21;100785.00;6304627;22;20495;-86
2023/10/03 06:31:21;;;;;;;15.10;6.28;;;;;;;19.33;48.38;100790.25;6304209;22;20448;-87
2023/10/03 06:33:47;;;;;;;29.05;4.57;;;;;;;19.59;47.67;100777.78;6304175;22;20030;-85
2023/10/03 06:36:12;;;;;;;14.88;4.18;;;;;;;19.79;47.02;100763.72;6304144;22;20353;-85
2023/10/03 06:38:41;;;;;;;14.25;5.50;;;;;;;20.29;46.42;100786.00;6304446;22;20003;-86
2023/10/03 06:41:07;;;;;;;16.40;6.00;;;;;;;19.80;46.76;100770.81;6304278;22;20377;-86
2023/10/03 06:43:33;;;;;;;15.02;4.85;;;;;;;19.87;45.82;100768.78;6305273;22;20086;-85
2023/10/03 06:45:58;;;;;;;12.27;5.97;;;;;;;20.28;45.67;100793.16;6304507;22;20507;-86
2023/10/03 06:48:24;;;;;;;11.73;3.80;;;;;;;19.76;45.76;100776.31;6304616;22;20015;-86
2023/10/03 06:50:53;;;;;;;15.85;3.97;;;;;;;20.03;46.28;100778.00;6304394;22;20026;-85
2023/10/03 06:53:19;;;;;;;13.68;5.00;;;;;;;20.45;45.02;100800.56;6304320;22;20030;-86
2023/10/03 06:55:45;;;;;;;9.68;4.18;;;;;;;20.08;44.80;100771.59;6304049;22;20003;-87
2023/10/03 06:58:11;;;;;;;22.92;5.65;;;;;;;19.63;46.64;100778.53;6304474;22;20007;-86
2023/10/03 07:00:40;;;;;;;8.15;4.13;;;;;;;19.83;45.96;100794.81;6302563;22;20003;-84
2023/10/03 07:03:05;;;;;;;12.90;5.05;;;;;;;19.85;46.58;100798.28;6302271;22;20007;-87
2023/10/03 07:05:33;;;;;;;15.05;4.53;;;;;;;20.10;45.50;100775.09;6304081;22;20350;-87
2023/10/03 07:07:59;;;;;;;11.18;3.67;;;;;;;20.21;45.97;100791.63;6304482;22;20010;-87
2023/10/03 07:10:27;;;;;;;12.63;3.70;;;;;;;20.32;45.14;100793.91;6305037;22;20003;-88
2023/10/03 07:12:53;;;;;;;7.32;3.35;;;;;;;20.72;45.50;100812.03;6302453;22;20349;-90
2023/10/03 07:15:18;;;;;;;12.80;3.78;;;;;;;20.87;44.24;100773.00;6304570;22;20003;-87
2023/10/03 07:17:44;;;;;;;8.90;3.95;;;;;;;21.16;43.86;100803.09;6304183;22;20081;-88
2023/10/03 07:20:12;;;;;;;13.95;4.40;;;;;;;20.52;44.77;100777.06;6304687;22;20101;-88
2023/10/03 07:22:39;;;;;;;15.05;3.88;;;;;;;21.21;44.07;100794.84;6304372;22;20007;-88
2023/10/03 07:25:08;;;;;;;8.20;4.43;;;;;;;21.29;44.56;100764.09;6304547;22;20003;-88
2023/10/03 07:27:34;;;;;;;10.57;4.32;;;;;;;21.37;44.31;100761.09;6304526;22;20003;-88
2023/10/03 07:30:02;;;;;;;9.85;4.05;;;;;;;21.70;44.02;100781.19;6304448;22;20027;-88
2023/10/03 07:32:32;;;;;;;10.93;5.07;;;;;;;22.15;41.43;100788.09;6304484;22;20011;-88
2023/10/03 07:35:02;;;;;;;12.07;4.13;;;;;;;22.07;41.23;100771.47;6304643;22;20010;-88
2023/10/03 07:37:28;;;;;;;11.00;5.55;;;;;;;21.93;41.57;100775.66;6304235;22;20445;-87
2023/10/03 07:39:53;;;;;;;16.02;7.28;;;;;;;22.40;40.49;100793.28;6304988;22;20034;-85
2023/10/03 07:42:21;;;;;;;16.08;5.97;;;;;;;22.14;42.60;100755.00;6304709;22;20119;-87
2023/10/03 07:44:51;;;;;;;12.65;4.55;;;;;;;22.46;40.43;100762.50;6304268;22;20007;-91
2023/10/03 07:47:17;;;;;;;8.52;4.18;;;;;;;22.49;40.38;100724.72;6304744;22;19999;-89
2023/10/03 07:49:42;;;;;;;14.50;4.15;;;;;;;23.24;39.26;100764.06;6303668;22;20056;-88
2023/10/03 07:52:08;;;;;;;8.85;4.57;;;;;;;23.53;39.07;100774.31;6304385;22;20059;-91
2023/10/03 07:54:36;;;;;;;11.13;4.50;;;;;;;23.30;39.42;100776.34;6303992;22;20042;-94
2023/10/03 07:57:05;;;;;;;11.27;4.30;;;;;;;23.84;37.35;100759.22;6305098;22;20350;-93
2023/10/03 07:59:33;;;;;;;23.02;7.28;;;;;;;23.69;37.02;100782.44;6304834;22;20470;-92
2023/10/03 08:02:04;;;;;;;7.85;3.40;;;;;;;23.63;37.45;100753.16;6304181;22;20067;-85
2023/10/03 08:04:33;;;;;;;11.15;3.80;;;;;;;23.55;38.71;100780.47;6304850;22;20003;-94
2023/10/03 08:06:59;;;;;;;10.50;3.67;;;;;;;24.17;37.48;100780.78;6304800;22;20446;-87
2023/10/03 08:09:25;;;;;;;8.70;3.05;;;;;;;24.02;36.10;100776.25;6303950;22;20006;-92
2023/10/03 08:11:52;;;;;;;7.70;3.72;;;;;;;24.24;36.56;100779.50;6304276;22;20033;-93
2023/10/03 08:14:18;;;;;;;6.38;2.55;;;;;;;24.42;36.45;100768.66;6304367;22;20007;-95
2023/10/03 08:16:45;;;;;;;8.85;3.30;;;;;;;24.15;36.16;100750.38;6304076;22;20524;-93
2023/10/03 08:19:21;;;;;;;9.40;3.85;;;;;;;24.04;35.82;100725.84;6304142;22;20396;-92
2023/10/03 08:21:52;;;;;;;6.63;3.85;;;;;;;24.44;35.92;100754.13;6303958;22;20331;-92
2023/10/03 08:24:32;;;;;;;11.32;3.13;;;;;;;24.77;35.41;100764.00;6303748;22;20498;-89
2023/10/03 08:26:59;;;;;;;10.15;3.85;;;;;;;24.38;36.01;100749.09;6304324;22;20007;-90
2023/10/03 08:29:25;;;;;;;8.13;3.17;;;;;;;24.25;36.46;100754.31;6303709;22;20568;-94
2023/10/03 08:31:58;;;;;;;8.13;3.53;;;;;;;24.53;35.45;100750.06;6304134;22;20433;-93
2023/10/03 08:34:28;;;;;;;6.75;3.42;;;;;;;24.26;35.66;100779.44;6303983;22;20438;-93
2023/10/03 08:36:54;;;;;;;10.10;4.20;;;;;;;24.65;35.10;100764.69;6303691;22;20003;-94
2023/10/03 08:39:23;;;;;;;7.53;3.72;;;;;;;23.98;35.28;100740.50;6303760;22;20003;-92
2023/10/03 08:41:53;;;;;;;11.63;3.85;;;;;;;23.38;36.83;100760.69;6303954;22;20075;-92
2023/10/03 08:44:23;;;;;;;6.95;2.72;;;;;;;22.94;36.97;100723.44;6303813;22;20068;-91
2023/10/03 08:46:55;;;;;;;8.15;3.13;;;;;;;23.05;36.66;100731.81;6303990;22;19999;-92
2023/10/03 08:49:26;;;;;;;6.93;3.30;;;;;;;23.22;36.57;100689.75;6304099;22;20019;-92
2023/10/03 08:51:53;;;;;;;11.75;3.53;;;;;;;23.94;35.38;100747.00;6303975;22;19999;-94
2023/10/03 08:54:18;;;;;;;5.97;2.75;;;;;;;23.84;34.41;100749.34;6304254;22;20007;-95
2023/10/03 08:56:44;;;;;;;12.18;2.55;;;;;;;24.08;33.88;100755.25;6304316;22;20349;-95
2023/10/03 08:59:15;;;;;;;5.78;2.55;;;;;;;23.83;33.88;100722.47;6304084;22;20007;-94
2023/10/03 09:01:45;;;;;;;7.03;2.55;;;;;;;24.09;34.16;100746.19;6304326;22;20456;-95
2023/10/03 09:04:16;;;;;;;5.38;3.65;;;;;;;24.26;34.64;100742.56;6304986;22;20011;-91
2023/10/03 09:06:49;;;;;;;10.48;2.85;;;;;;;23.78;34.59;100712.78;6307645;22;20003;-96
2023/10/03 09:09:16;;;;;;;11.45;2.70;;;;;;;24.18;34.13;100741.25;6277475;22;20011;-94
2023/10/03 09:11:51;;;;;;;5.80;2.75;;;;;;;23.88;33.82;100744.66;6306353;22;19999;-94
2023/10/03 09:14:20;;;;;;;7.30;3.15;;;;;;;23.71;34.53;100741.03;6282581;22;20098;-89
2023/10/03 09:16:53;;;;;;;6.72;2.95;;;;;;;24.09;34.00;100732.69;6304501;22;20391;-85
2023/10/03 09:19:24;;;;;;;6.30;2.45;;;;;;;24.13;33.50;100714.56;6303897;22;20006;-94
2023/10/03 09:21:51;;;;;;;5.15;2.03;;;;;;;23.90;33.41;100694.28;6301886;22;20011;-92
2023/10/03 09:24:20;;;;;;;13.43;3.83;;;;;;;23.94;33.86;100726.34;6276148;22;20003;-92
2023/10/03 09:27:02;;;;;;;96.93;24.50;;;;;;;24.07;34.28;100698.72;6303573;22;20008;-90
2023/10/03 09:29:30;;;;;;;69.32;18.85;;;;;;;24.17;34.28;100664.03;6304209;22;20007;-93
2023/10/03 09:32:12;;;;;;;23.60;6.45;;;;;;;24.13;33.31;100710.03;6304681;22;20082;-93
2023/10/03 09:34:40;;;;;;;12.75;4.45;;;;;;;24.36;32.96;100723.16;6252240;22;20011;-91
2023/10/03 09:37:06;;;;;;;33.95;9.43;;;;;;;24.25;32.93;100712.97;6300723;22;20010;-91
2023/10/03 09:39:48;;;;;;;13.70;5.43;;;;;;;24.22;33.42;100688.91;6303563;22;20417;-88
2023/10/03 09:42:19;;;;;;;45.08;11.00;;;;;;;24.55;33.17;100704.13;6303338;22;20009;-87
2023/10/03 09:44:48;;;;;;;77.20;21.17;;;;;;;24.47;32.80;100667.69;6275591;22;20017;-88
2023/10/03 09:47:17;;;;;;;9.25;4.13;;;;;;;24.40;32.79;100687.00;6303415;22;20093;-88
2023/10/03 09:49:46;;;;;;;27.95;8.10;;;;;;;24.03;32.80;100675.59;6303731;22;20089;-94
2023/10/03 09:52:23;;;;;;;42.40;10.25;;;;;;;24.38;33.47;100697.00;6302510;22;20038;-88
2023/10/03 09:54:54;;;;;;;27.02;7.63;;;;;;;24.38;32.87;100675.44;6303226;22;20418;-88
2023/10/03 09:57:24;;;;;;;9.25;4.03;;;;;;;24.31;32.28;100659.63;6302759;22;20068;-87
2023/10/03 09:59:50;;;;;;;24.23;5.78;;;;;;;24.59;32.26;100674.22;6276186;22;20060;-84
2023/10/03 10:02:30;;;;;;;7.82;3.25;;;;;;;24.33;32.64;100666.72;6304064;22;20010;-84
2023/10/03 10:04:59;;;;;;;9.38;3.42;;;;;;;24.09;32.65;100668.03;6312035;22;20003;-88
2023/10/03 10:07:34;;;;;;;8.52;3.28;;;;;;;24.23;32.21;100669.06;6306738;22;20445;-87
2023/10/03 10:10:07;;;;;;;10.60;3.85;;;;;;;24.40;32.66;100687.84;6302694;22;19999;-88
2023/10/03 10:12:37;;;;;;;5.55;2.58;;;;;;;24.09;32.51;100661.78;6304115;22;20448;-93
2023/10/03 10:15:21;;;;;;;7.82;3.03;;;;;;;24.04;32.67;100628.84;6279873;22;20469;-95
2023/10/03 10:18:10;;;;;;;6.10;2.63;;;;;;;23.94;32.04;100598.81;6278571;22;20015;-95
2023/10/03 10:21:22;;;;;;;6.40;2.20;;;;;;;23.82;32.38;100586.91;6241883;23;20047;-96
2023/10/03 10:24:11;;;;;;;13.65;3.00;;;;;;;24.41;31.88;100664.47;6220630;23;20008;-90
2023/10/03 10:26:38;;;;;;;7.35;3.55;;;;;;;24.21;31.45;100619.78;6219713;23;20004;-95
2023/10/03 10:29:19;;;;;;;7.18;2.83;;;;;;;23.90;31.95;100581.13;6227827;23;20018;-96
2023/10/03 10:32:31;;;;;;;;;;;;;;;;;;;;;
2023/10/03 10:35:29;;;;;;;8.25;3.80;;;;;;;23.87;31.46;100587.53;6246670;23;20046;-96
2023/10/03 10:37:58;;;;;;;13.80;3.50;;;;;;;24.34;31.30;100590.28;6242892;23;20563;-95
2023/10/03 10:40:29;;;;;;;5.43;3.38;;;;;;;24.23;31.24;100563.97;6216001;23;20008;-95
2023/10/03 10:43:04;;;;;;;6.78;3.10;;;;;;;24.53;30.58;100598.16;6241102;23;20008;-95
2023/10/03 10:45:39;;;;;;;7.00;3.35;;;;;;;24.49;30.50;100562.41;6213561;23;20023;-96
2023/10/03 10:48:16;;;;;;;4.75;2.33;;;;;;;24.39;30.71;100572.00;6214886;23;20054;-95
2023/10/03 10:51:18;;;;;;;7.22;3.50;;;;;;;24.78;30.91;100617.34;6220736;22;20008;-92
2023/10/03 10:53:51;;;;;;;9.73;2.90;;;;;;;24.37;30.67;100547.81;6250360;22;20011;-88
2023/10/03 10:56:28;;;;;;;17.75;3.03;;;;;;;23.92;30.79;100528.00;6249260;22;20004;-93
2023/10/03 10:59:16;;;;;;;6.32;3.05;;;;;;;24.09;31.24;100544.06;6273168;22;20015;-94
2023/10/03 11:01:41;;;;;;;7.53;3.42;;;;;;;24.52;30.03;100537.97;6275812;22;20094;-93
2023/10/03 11:04:22;;;;;;;5.43;2.50;;;;;;;24.81;30.29;100606.38;6274738;22;20007;-92
2023/10/03 11:07:00;;;;;;;10.85;3.58;;;;;;;24.70;30.67;100556.72;6250204;22;20008;-95
2023/10/03 11:09:29;;;;;;;10.60;3.97;;;;;;;24.49;30.33;100528.22;6279524;22;20065;-93
2023/10/03 11:11:56;;;;;;;16.92;3.28;;;;;;;24.54;30.56;100521.69;6276366;22;20057;-94
2023/10/03 11:14:29;;;;;;;7.82;3.30;;;;;;;25.19;31.10;100607.69;6272478;22;20011;-94
2023/10/03 11:17:01;;;;;;;5.30;2.42;;;;;;;24.90;30.44;100534.81;6276979;22;20003;-93
2023/10/03 11:19:36;;;;;;;7.85;3.25;;;;;;;24.76;30.33;100527.56;6278119;22;20008;-96
2023/10/03 11:22:04;;;;;;;11.95;3.45;;;;;;;25.09;29.95;100537.22;6272061;22;20007;-95
2023/10/03 11:24:37;;;;;;;9.15;4.03;;;;;;;24.92;31.13;100529.31;6272824;22;20102;-95
2023/10/03 11:27:03;;;;;;;6.68;3.33;;;;;;;25.12;30.18;100539.72;6275578;22;20007;-95
2023/10/03 11:29:48;;;;;;;5.53;2.97;;;;;;;24.65;29.59;100498.56;6274928;22;20015;-96
2023/10/03 11:32:33;;;;;;;5.95;2.72;;;;;;;25.16;29.54;100537.69;6251562;22;20043;-96
2023/10/03 11:35:14;;;;;;;6.07;2.17;;;;;;;25.51;29.39;100543.59;6275409;22;20004;-96
2023/10/03 11:37:43;;;;;;;7.07;3.10;;;;;;;25.55;29.01;100512.72;6275223;22;20003;-96
2023/10/03 11:40:16;;;;;;;8.38;3.63;;;;;;;25.31;29.77;100571.88;6272892;22;20054;-92
2023/10/03 11:42:52;;;;;;;6.50;2.80;;;;;;;25.49;29.70;100550.09;6250982;22;20011;-96
2023/10/03 11:45:20;;;;;;;5.00;2.53;;;;;;;24.93;30.33;100510.34;6253336;22;20012;-94
2023/10/03 11:48:07;;;;;;;5.43;2.25;;;;;;;25.05;30.01;100499.72;6250113;22;20011;-96
2023/10/03 11:50:39;;;;;;;8.85;2.60;;;;;;;25.36;30.22;100529.25;6278935;22;20004;-95
2023/10/03 11:53:08;;;;;;;7.45;2.83;;;;;;;24.91;29.97;100457.41;6285729;22;20007;-96
2023/10/03 11:55:36;;;;;;;9.65;2.78;;;;;;;25.22;29.48;100491.41;6278738;22;20015;-94